Terminal Aerodrome Forecast
Issued by NWS Buffalo, NY

Home | Current Version | Previous Version | Text Only | Print | Product List | Glossary On
Versions: 1 2 3 4 5 6 7 8 9 10 11 12 13 14 15 16 17 18 19 20 21 22 23 24 25 26 27
746
FTUS41 KBUF 261517 AAB
TAFBUF
TAF AMD
KBUF 261517Z 2615/2712 03007KT P6SM SCT100 BKN150
     FM261700 13008KT P6SM OVC045
     FM262300 16012KT P6SM VCSH OVC070
     FM270100 17014G21KT P6SM -RA OVC045
     FM270300 17014G21KT 5SM -RA OVC035
     FM270500 18013G20KT P6SM OVC030=

USA.gov is the U.S. government's official web portal to all federal, state and local government web resources and services.